createdAt,value
2023-05-13T00:03:51.392Z,56.64
2023-05-13T00:07:51.586Z,56.29
2023-05-13T00:11:51.784Z,56.81
2023-05-13T00:15:52.273Z,57.22
2023-05-13T00:19:55.062Z,57.65
2023-05-13T00:23:55.369Z,57.21
2023-05-13T00:27:55.502Z,57.26
2023-05-13T00:31:55.740Z,57.42
2023-05-13T00:35:58.580Z,58.19
2023-05-13T00:39:58.845Z,58.06
2023-05-13T00:44:00.106Z,58.40
2023-05-13T00:48:01.491Z,58.97
2023-05-13T00:52:05.365Z,58.51
2023-05-13T00:56:05.565Z,58.95
2023-05-13T01:00:08.311Z,59.24
2023-05-13T01:04:23.719Z,59.55
2023-05-13T01:08:40.635Z,59.52
2023-05-13T01:12:48.421Z,59.23
2023-05-13T01:16:55.074Z,59.96
2023-05-13T01:20:56.853Z,59.73
2023-05-13T01:25:00.006Z,59.10
2023-05-13T01:29:00.756Z,58.72
2023-05-13T01:33:02.457Z,58.77
2023-05-13T01:37:05.399Z,58.17
2023-05-13T01:41:08.947Z,58.02
2023-05-13T01:45:12.804Z,57.88
2023-05-13T01:49:13.586Z,57.88
2023-05-13T01:53:14.072Z,57.68
2023-05-13T01:57:17.218Z,57.60
2023-05-13T02:01:17.889Z,57.01
2023-05-13T02:05:19.298Z,57.03
2023-05-13T02:09:19.926Z,57.09
2023-05-13T02:13:22.715Z,56.99
2023-05-13T02:17:23.070Z,56.93
2023-05-13T02:21:23.399Z,57.23
2023-05-13T02:25:23.975Z,57.59
2023-05-13T02:29:26.882Z,57.48
2023-05-13T02:33:27.328Z,57.20
2023-05-13T02:37:28.048Z,57.00
2023-05-13T02:41:34.689Z,56.97
2023-05-13T02:45:37.514Z,56.50
2023-05-13T02:49:38.448Z,56.48
2023-05-13T02:53:39.878Z,56.83
2023-05-13T02:57:42.576Z,56.53
2023-05-13T03:01:45.517Z,56.63
2023-05-13T03:05:45.818Z,57.24
2023-05-13T03:09:46.120Z,57.14
2023-05-13T03:13:46.438Z,56.47
2023-05-13T03:17:50.557Z,56.45
2023-05-13T03:21:53.806Z,56.83
2023-05-13T03:25:54.252Z,56.47
2023-05-13T03:29:54.598Z,55.81
2023-05-13T03:33:58.565Z,55.72
2023-05-13T03:37:58.898Z,55.68
2023-05-13T03:41:59.609Z,55.02
2023-05-13T03:46:00.054Z,54.87
2023-05-13T03:50:04.667Z,54.39
2023-05-13T03:54:11.755Z,55.02
2023-05-13T03:58:19.299Z,54.75
2023-05-13T04:02:21.989Z,55.09
2023-05-13T04:06:24.914Z,55.19
2023-05-13T04:10:25.142Z,55.06
2023-05-13T04:14:25.372Z,54.85
2023-05-13T04:18:25.590Z,53.58
2023-05-13T04:22:28.459Z,53.93
2023-05-13T04:26:28.862Z,53.84
2023-05-13T04:30:29.264Z,53.07
2023-05-13T04:34:30.593Z,52.48
2023-05-13T04:38:34.614Z,53.11
2023-05-13T04:42:35.933Z,53.21
2023-05-13T04:46:38.436Z,53.18
2023-05-13T04:50:38.889Z,53.12
2023-05-13T04:54:42.850Z,52.79
2023-05-13T04:58:44.131Z,52.59
2023-05-13T05:02:47.641Z,51.98
2023-05-13T05:06:49.601Z,52.44
2023-05-13T05:10:53.826Z,52.20
2023-05-13T05:14:54.384Z,51.98
2023-05-13T05:18:54.776Z,51.49
2023-05-13T05:22:56.181Z,51.60
2023-05-13T05:27:02.387Z,51.74
2023-05-13T05:31:03.314Z,51.54
2023-05-13T05:35:05.446Z,50.52
2023-05-13T05:39:07.025Z,50.84
2023-05-13T05:43:13.873Z,50.26
2023-05-13T05:47:14.812Z,50.05
2023-05-13T05:51:15.084Z,49.16
2023-05-13T05:55:15.401Z,48.99
2023-05-13T05:59:18.352Z,48.06
2023-05-13T06:03:19.013Z,48.39
2023-05-13T06:07:19.508Z,47.83
2023-05-13T06:11:20.117Z,48.90
2023-05-13T06:15:23.024Z,49.32
2023-05-13T06:19:23.998Z,49.43
2023-05-13T06:23:25.090Z,49.23
2023-05-13T06:27:25.630Z,48.39
2023-05-13T06:31:29.237Z,47.53
2023-05-13T06:35:30.726Z,47.40
2023-05-13T06:39:31.755Z,48.42
2023-05-13T06:43:32.162Z,47.61
2023-05-13T06:47:42.579Z,48.07
2023-05-13T06:51:44.381Z,47.35
2023-05-13T06:55:45.069Z,47.52
2023-05-13T06:59:47.923Z,47.55
2023-05-13T07:03:51.755Z,47.18
2023-05-13T07:07:53.875Z,48.30
2023-05-13T07:11:54.414Z,48.19
2023-05-13T07:15:54.982Z,48.49
2023-05-13T07:19:58.012Z,47.02
2023-05-13T07:23:58.243Z,47.27
2023-05-13T07:27:58.484Z,46.80
2023-05-13T07:31:58.672Z,45.95
2023-05-13T07:36:01.533Z,45.51
2023-05-13T07:40:01.936Z,45.98
2023-05-13T07:44:02.337Z,46.03
2023-05-13T07:48:03.146Z,47.24
2023-05-13T07:52:06.218Z,46.75
2023-05-13T07:56:08.029Z,47.30
2023-05-13T08:00:10.745Z,47.96
2023-05-13T08:04:15.703Z,47.95
2023-05-13T08:08:18.679Z,46.84
2023-05-13T08:12:18.929Z,46.02
2023-05-13T08:16:19.184Z,45.90
2023-05-13T08:20:19.625Z,45.26
2023-05-13T08:24:22.421Z,44.05
2023-05-13T08:28:22.769Z,45.43
2023-05-13T08:32:23.153Z,45.60
2023-05-13T08:36:26.188Z,45.08
2023-05-13T08:40:29.499Z,45.33
2023-05-13T08:44:35.651Z,45.10
2023-05-13T08:48:39.945Z,45.86
2023-05-13T08:52:41.498Z,45.54
2023-05-13T08:56:53.956Z,46.98
2023-05-13T09:01:01.936Z,46.81
2023-05-13T09:05:12.056Z,46.55
2023-05-13T09:09:13.509Z,47.87
2023-05-13T09:13:21.295Z,47.15
2023-05-13T09:17:22.333Z,46.49
2023-05-13T09:21:28.301Z,46.73
2023-05-13T09:25:30.841Z,46.05
2023-05-13T09:29:33.736Z,46.51
2023-05-13T09:33:34.384Z,45.89
2023-05-13T09:37:34.734Z,45.86
2023-05-13T09:41:35.378Z,45.46
2023-05-13T09:45:39.374Z,45.34
2023-05-13T09:49:40.182Z,44.88
2023-05-13T09:53:40.492Z,44.14
2023-05-13T09:57:42.656Z,43.90
2023-05-13T10:01:48.264Z,43.78
2023-05-13T10:05:48.978Z,44.02
2023-05-13T10:09:50.431Z,43.67
2023-05-13T10:13:59.113Z,43.54
2023-05-13T10:18:05.274Z,43.95
2023-05-13T10:22:08.397Z,45.01
2023-05-13T10:26:10.049Z,44.39
2023-05-13T10:30:12.417Z,43.87
2023-05-13T10:34:16.406Z,44.41
2023-05-13T10:38:27.289Z,44.82
2023-05-13T10:42:46.302Z,43.80
2023-05-13T10:46:47.075Z,45.17
2023-05-13T10:50:59.725Z,43.34
2023-05-13T10:55:05.407Z,42.92
2023-05-13T10:59:08.285Z,41.75
2023-05-13T11:03:18.405Z,42.87
2023-05-13T11:07:21.484Z,42.10
2023-05-13T11:11:37.802Z,42.13
2023-05-13T11:15:47.911Z,42.72
2023-05-13T11:19:50.192Z,42.01
2023-05-13T11:24:00.249Z,42.87
2023-05-13T11:28:01.542Z,41.04
2023-05-13T11:32:03.327Z,40.79
2023-05-13T11:36:04.983Z,39.80
2023-05-13T11:40:11.209Z,38.83
2023-05-13T11:44:12.338Z,38.64
2023-05-13T11:48:26.207Z,37.74
2023-05-13T11:52:26.540Z,37.50
2023-05-13T11:56:33.130Z,36.72
2023-05-13T12:00:35.747Z,35.19
2023-05-13T12:04:36.305Z,34.57
2023-05-13T12:08:36.805Z,35.96
2023-05-13T12:12:43.374Z,35.35
2023-05-13T12:16:44.105Z,36.43
2023-05-13T12:20:45.003Z,36.94
2023-05-13T12:24:45.277Z,37.53
2023-05-13T12:28:48.167Z,37.31
2023-05-13T12:32:48.538Z,37.42
2023-05-13T12:36:48.777Z,37.77
2023-05-13T12:40:50.261Z,37.36
2023-05-13T12:44:53.371Z,38.04
2023-05-13T12:48:59.039Z,39.51
2023-05-13T12:53:00.816Z,39.28
2023-05-13T12:57:01.322Z,38.34
2023-05-13T13:01:04.450Z,39.31
2023-05-13T13:05:05.538Z,37.75
2023-05-13T13:09:06.225Z,36.61
2023-05-13T13:13:06.629Z,35.14
2023-05-13T13:17:09.997Z,33.50
2023-05-13T13:21:10.487Z,32.19
2023-05-13T13:25:11.552Z,31.56
2023-05-13T13:29:11.971Z,29.87
2023-05-13T13:33:15.967Z,30.43
2023-05-13T13:37:16.312Z,31.17
2023-05-13T13:41:16.656Z,31.26
2023-05-13T13:45:17.215Z,29.20
2023-05-13T13:49:23.991Z,29.67
2023-05-13T13:53:24.895Z,29.84
2023-05-13T13:57:25.288Z,31.62
2023-05-13T14:01:25.961Z,31.41
2023-05-13T14:05:29.505Z,30.36
2023-05-13T14:09:29.848Z,29.13
2023-05-13T14:13:30.065Z,31.46
2023-05-13T14:17:30.545Z,33.19
2023-05-13T14:21:35.139Z,34.30
2023-05-13T14:25:35.536Z,33.07
2023-05-13T14:29:36.138Z,34.59
2023-05-13T14:33:36.452Z,34.67
2023-05-13T14:37:39.508Z,35.33
2023-05-13T14:41:41.125Z,37.41
2023-05-13T14:45:41.399Z,37.09
2023-05-13T14:49:42.824Z,38.48
2023-05-13T14:53:45.971Z,39.45
2023-05-13T14:57:46.625Z,39.00
2023-05-13T15:01:46.981Z,37.44
2023-05-13T15:05:50.446Z,36.75
2023-05-13T15:09:53.338Z,37.90
2023-05-13T15:13:53.709Z,38.97
2023-05-13T15:17:54.938Z,38.32
2023-05-13T15:21:55.600Z,38.63
2023-05-13T15:25:58.524Z,39.51
2023-05-13T15:29:59.003Z,38.36
2023-05-13T15:33:59.667Z,37.78
2023-05-13T15:38:00.282Z,37.81
2023-05-13T15:42:03.144Z,37.73
2023-05-13T15:46:03.732Z,38.14
2023-05-13T15:50:04.167Z,37.67
2023-05-13T15:54:04.500Z,36.68
2023-05-13T15:58:10.104Z,37.55
2023-05-13T16:02:10.473Z,37.59
2023-05-13T16:06:10.826Z,37.75
2023-05-13T16:10:11.869Z,37.80
2023-05-13T16:14:14.850Z,37.96
2023-05-13T16:18:15.255Z,39.46
2023-05-13T16:22:31.030Z,40.35
2023-05-13T16:26:31.419Z,40.22
2023-05-13T16:30:34.756Z,39.54
2023-05-13T16:34:35.075Z,38.95
2023-05-13T16:38:35.853Z,40.42
2023-05-13T16:42:36.122Z,41.12
2023-05-13T16:46:44.074Z,41.14
2023-05-13T16:50:44.644Z,40.98
2023-05-13T16:54:45.216Z,41.81
2023-05-13T16:58:45.597Z,42.25
2023-05-13T17:02:48.884Z,42.53
2023-05-13T17:06:49.562Z,42.22
2023-05-13T17:10:49.951Z,42.59
2023-05-13T17:14:50.904Z,42.86
2023-05-13T17:18:54.128Z,43.24
2023-05-13T17:22:54.929Z,42.86
2023-05-13T17:26:56.017Z,43.22
2023-05-13T17:30:56.674Z,43.92
2023-05-13T17:35:00.176Z,44.12
2023-05-13T17:39:00.747Z,44.24
2023-05-13T17:43:03.614Z,44.14
2023-05-13T17:47:04.655Z,43.92
2023-05-13T17:51:07.998Z,45.73
2023-05-13T17:55:10.094Z,44.47
2023-05-13T17:59:10.556Z,44.59
2023-05-13T18:03:10.875Z,43.85
2023-05-13T18:07:13.778Z,43.74
2023-05-13T18:11:13.995Z,43.82
2023-05-13T18:15:14.571Z,43.83
2023-05-13T18:19:14.964Z,44.15
2023-05-13T18:23:18.106Z,44.34
2023-05-13T18:27:18.450Z,44.56
2023-05-13T18:31:19.125Z,44.75
2023-05-13T18:35:21.748Z,44.48
2023-05-13T18:39:24.735Z,44.99
2023-05-13T18:43:25.021Z,45.19
2023-05-13T18:47:25.519Z,45.95
2023-05-13T18:51:25.897Z,45.34
2023-05-13T18:55:28.696Z,45.39
2023-05-13T18:59:29.908Z,45.64
2023-05-13T19:03:30.900Z,46.47
2023-05-13T19:07:31.200Z,46.96
2023-05-13T19:11:34.307Z,47.04
2023-05-13T19:15:34.675Z,47.07
2023-05-13T19:19:34.881Z,47.10
2023-05-13T19:23:35.111Z,47.54
2023-05-13T19:27:39.312Z,47.39
2023-05-13T19:31:40.178Z,48.40
2023-05-13T19:35:40.583Z,49.36
2023-05-13T19:39:40.788Z,49.87
2023-05-13T19:43:43.524Z,49.88
2023-05-13T19:47:43.789Z,49.87
2023-05-13T19:51:44.216Z,50.41
2023-05-13T19:55:44.428Z,50.20
2023-05-13T19:59:47.281Z,50.45
2023-05-13T20:03:47.634Z,50.60
2023-05-13T20:07:47.972Z,50.67
2023-05-13T20:11:48.183Z,51.04
2023-05-13T20:15:50.941Z,51.59
2023-05-13T20:19:54.011Z,51.46
2023-05-13T20:23:54.196Z,52.17
2023-05-13T20:27:54.899Z,52.18
2023-05-13T20:31:57.692Z,52.29
2023-05-13T20:35:58.636Z,52.40
2023-05-13T20:39:58.838Z,52.95
2023-05-13T20:43:59.023Z,53.10
2023-05-13T20:48:01.920Z,53.23
2023-05-13T20:52:09.154Z,53.10
2023-05-13T20:56:10.602Z,53.54
2023-05-13T21:00:13.800Z,54.20
2023-05-13T21:04:17.481Z,55.07
2023-05-13T21:08:19.176Z,54.33
2023-05-13T21:12:19.399Z,54.33
2023-05-13T21:16:19.694Z,54.22
2023-05-13T21:20:23.293Z,53.70
2023-05-13T21:24:23.695Z,53.04
2023-05-13T21:28:26.242Z,53.13
2023-05-13T21:32:26.660Z,53.07
2023-05-13T21:36:29.562Z,53.55
2023-05-13T21:40:29.781Z,53.40
2023-05-13T21:44:30.648Z,53.66
2023-05-13T21:48:30.933Z,53.52
2023-05-13T21:52:33.763Z,53.08
2023-05-13T21:56:34.034Z,53.34
2023-05-13T22:00:34.813Z,52.93
2023-05-13T22:04:35.161Z,53.23
2023-05-13T22:08:38.093Z,53.03
2023-05-13T22:12:38.912Z,53.23
2023-05-13T22:16:39.200Z,52.72
2023-05-13T22:20:39.560Z,52.56
2023-05-13T22:24:42.430Z,52.50
2023-05-13T22:28:42.822Z,52.21
2023-05-13T22:32:43.171Z,52.53
2023-05-13T22:36:44.029Z,52.46
2023-05-13T22:40:46.878Z,52.42
2023-05-13T22:44:47.141Z,52.57
2023-05-13T22:48:47.366Z,53.16
2023-05-13T22:52:47.709Z,53.77
2023-05-13T22:56:51.177Z,54.14
2023-05-13T23:00:52.077Z,54.16
2023-05-13T23:04:52.326Z,53.98
2023-05-13T23:08:52.494Z,53.87
2023-05-13T23:12:56.637Z,54.14
2023-05-13T23:16:56.905Z,53.37
2023-05-13T23:20:58.521Z,53.13
2023-05-13T23:24:58.688Z,53.79
2023-05-13T23:29:01.678Z,53.46
2023-05-13T23:33:02.174Z,53.70
2023-05-13T23:37:02.508Z,53.57
2023-05-13T23:41:02.798Z,53.77
2023-05-13T23:45:05.819Z,53.28
2023-05-13T23:49:06.171Z,54.01
2023-05-13T23:53:06.482Z,53.96
2023-05-13T23:57:06.953Z,53.96
